createdAt,value
2022-11-27T00:00:42.465Z,12.13
2022-11-27T00:05:51.979Z,12.73
2022-11-27T00:10:55.757Z,13.65
2022-11-27T00:15:58.413Z,13.10
2022-11-27T00:21:03.043Z,11.00
2022-11-27T00:26:07.690Z,12.23
2022-11-27T00:31:19.213Z,12.65
2022-11-27T00:36:21.677Z,11.88
2022-11-27T00:41:26.638Z,12.50
2022-11-27T00:46:30.427Z,12.43
2022-11-27T00:51:33.219Z,12.52
2022-11-27T00:56:37.685Z,11.33
2022-11-27T01:01:41.512Z,12.85
2022-11-27T01:06:44.545Z,13.65
2022-11-27T01:11:48.275Z,11.02
2022-11-27T01:16:50.691Z,14.50
2022-11-27T01:21:53.441Z,14.30
2022-11-27T01:26:57.168Z,12.13
2022-11-27T01:31:59.588Z,11.57
2022-11-27T01:37:02.059Z,11.88
2022-11-27T01:42:05.982Z,10.85
2022-11-27T01:47:12.927Z,11.00
2022-11-27T01:52:17.421Z,10.25
2022-11-27T01:57:23.304Z,10.75
2022-11-27T02:02:25.764Z,10.00
2022-11-27T02:07:28.312Z,10.38
2022-11-27T02:12:34.467Z,9.75
2022-11-27T02:17:40.171Z,9.68
2022-11-27T02:22:48.509Z,9.60
2022-11-27T02:28:03.485Z,8.23
2022-11-27T02:33:10.525Z,9.70
2022-11-27T02:38:15.906Z,7.90
2022-11-27T02:43:20.274Z,8.45
2022-11-27T02:48:25.206Z,8.13
2022-11-27T02:53:31.863Z,8.07
2022-11-27T02:58:35.207Z,7.63
2022-11-27T03:03:42.811Z,7.50
2022-11-27T03:08:49.831Z,8.00
2022-11-27T03:13:54.265Z,6.22
2022-11-27T03:19:01.046Z,8.00
2022-11-27T03:24:03.535Z,6.43
2022-11-27T03:29:07.331Z,6.53
2022-11-27T03:34:11.328Z,6.32
2022-11-27T03:39:14.010Z,5.97
2022-11-27T03:44:23.685Z,6.67
2022-11-27T03:49:33.432Z,6.60
2022-11-27T03:54:42.525Z,5.78
2022-11-27T03:59:46.794Z,5.93
2022-11-27T04:04:50.465Z,6.00
2022-11-27T04:09:52.860Z,6.28
2022-11-27T04:14:55.234Z,6.30
2022-11-27T04:19:59.082Z,6.00
2022-11-27T04:25:01.628Z,6.10
2022-11-27T04:30:04.123Z,6.28
2022-11-27T04:35:08.303Z,6.32
2022-11-27T04:40:11.231Z,6.20
2022-11-27T04:45:14.290Z,6.22
2022-11-27T04:50:18.228Z,5.68
2022-11-27T04:55:20.687Z,5.55
2022-11-27T05:00:23.183Z,6.30
2022-11-27T05:05:26.893Z,6.55
2022-11-27T05:10:29.372Z,6.40
2022-11-27T05:15:31.778Z,6.50
2022-11-27T05:20:35.598Z,6.53
2022-11-27T05:25:37.980Z,6.93
2022-11-27T05:30:40.397Z,6.75
2022-11-27T05:35:45.450Z,7.10
2022-11-27T05:40:47.813Z,7.60
2022-11-27T05:45:50.199Z,6.82
2022-11-27T05:50:53.942Z,7.88
2022-11-27T05:55:56.352Z,7.38
2022-11-27T06:00:58.881Z,7.75
2022-11-27T06:06:07.660Z,8.07
2022-11-27T06:11:10.603Z,8.90
2022-11-27T06:16:15.911Z,8.43
2022-11-27T06:21:19.776Z,8.60
2022-11-27T06:26:23.522Z,9.18
2022-11-27T06:31:26.856Z,9.57
2022-11-27T06:36:31.668Z,8.95
2022-11-27T06:41:34.172Z,9.02
2022-11-27T06:46:36.589Z,8.98
2022-11-27T06:51:40.455Z,9.90
2022-11-27T06:56:42.836Z,9.23
2022-11-27T07:06:50.182Z,9.95
2022-11-27T07:11:53.010Z,10.65
2022-11-27T07:16:55.458Z,9.77
2022-11-27T07:21:59.295Z,10.98
2022-11-27T07:27:01.704Z,10.85
2022-11-27T07:32:04.231Z,12.15
2022-11-27T07:37:08.130Z,11.27
2022-11-27T07:42:36.809Z,10.13
2022-11-27T07:47:32.887Z,11.45
2022-11-27T07:52:41.012Z,11.20
2022-11-27T07:57:44.478Z,11.23
2022-11-27T08:02:46.922Z,10.88
2022-11-27T08:07:50.664Z,10.13
2022-11-27T08:12:53.120Z,10.73
2022-11-27T08:17:55.621Z,10.52
2022-11-27T08:23:02.702Z,10.18
2022-11-27T08:28:05.889Z,10.10
2022-11-27T08:33:08.284Z,9.83
2022-11-27T08:38:12.007Z,10.32
2022-11-27T08:43:14.458Z,10.45
2022-11-27T08:48:16.948Z,10.30
2022-11-27T08:53:20.922Z,10.80
2022-11-27T08:58:23.392Z,10.00
2022-11-27T09:03:25.830Z,10.98
2022-11-27T09:08:29.653Z,10.05
2022-11-27T09:13:32.365Z,10.63
2022-11-27T09:18:35.127Z,11.37
2022-11-27T09:23:39.536Z,10.00
2022-11-27T09:28:42.435Z,10.60
2022-11-27T09:33:45.221Z,10.30
2022-11-27T09:38:49.121Z,11.20
2022-11-27T09:43:56.736Z,12.48
2022-11-27T09:49:01.340Z,11.43
2022-11-27T09:54:08.574Z,11.32
2022-11-27T09:59:15.579Z,11.38
2022-11-27T10:04:19.703Z,11.85
2022-11-27T10:09:29.074Z,13.23
2022-11-27T10:14:37.985Z,11.55
2022-11-27T10:19:46.562Z,17.33
2022-11-27T10:24:58.036Z,16.40
2022-11-27T10:30:02.271Z,13.52
2022-11-27T10:35:06.508Z,16.77
2022-11-27T10:40:24.175Z,11.13
2022-11-27T10:45:30.456Z,11.75
2022-11-27T10:50:33.730Z,10.30
2022-11-27T10:55:44.154Z,10.23
2022-11-27T11:00:46.589Z,10.73
2022-11-27T11:06:19.378Z,10.18
2022-11-27T11:11:27.535Z,10.18
2022-11-27T11:16:35.291Z,11.90
2022-11-27T11:21:40.470Z,9.82
2022-11-27T11:26:47.063Z,9.75
2022-11-27T11:31:49.485Z,10.25
2022-11-27T11:36:56.832Z,10.40
2022-11-27T11:42:00.638Z,10.38
2022-11-27T11:47:03.068Z,9.52
2022-11-27T11:52:10.976Z,9.85
2022-11-27T11:57:25.448Z,9.50
2022-11-27T12:02:39.017Z,10.25
2022-11-27T12:07:52.425Z,8.90
2022-11-27T12:13:00.912Z,13.13
2022-11-27T12:18:06.068Z,8.60
2022-11-27T12:23:24.454Z,8.45
2022-11-27T12:28:39.034Z,8.02
2022-11-27T12:33:46.958Z,7.93
2022-11-27T12:38:53.276Z,8.15
2022-11-27T12:44:00.384Z,7.88
2022-11-27T12:49:05.689Z,7.00
2022-11-27T12:54:10.929Z,7.65
2022-11-27T12:59:19.645Z,7.55
2022-11-27T13:04:24.583Z,8.05
2022-11-27T13:09:32.646Z,7.50
2022-11-27T13:14:39.033Z,7.65
2022-11-27T13:19:43.974Z,7.85
2022-11-27T13:24:46.381Z,7.75
2022-11-27T13:29:51.878Z,7.78
2022-11-27T13:34:56.315Z,8.50
2022-11-27T13:40:04.424Z,8.07
2022-11-27T13:45:11.446Z,7.93
2022-11-27T13:50:14.655Z,8.27
2022-11-27T13:55:24.862Z,7.60
2022-11-27T14:00:36.572Z,8.60
2022-11-27T14:05:41.150Z,7.63
2022-11-27T14:10:49.394Z,8.48
2022-11-27T14:16:01.807Z,8.35
2022-11-27T14:21:25.198Z,8.02
2022-11-27T14:26:27.591Z,8.90
2022-11-27T14:31:33.062Z,8.88
2022-11-27T14:36:36.006Z,11.20
2022-11-27T14:41:38.393Z,10.50
2022-11-27T14:46:42.432Z,11.15
2022-11-27T14:51:44.955Z,11.35
2022-11-27T14:56:47.614Z,10.32
2022-11-27T15:02:00.852Z,10.30
2022-11-27T15:07:05.924Z,10.87
2022-11-27T15:12:13.738Z,11.18
2022-11-27T15:17:23.535Z,11.65
2022-11-27T15:22:25.903Z,12.75
2022-11-27T15:27:28.588Z,11.90
2022-11-27T15:32:45.701Z,10.37
2022-11-27T15:37:48.223Z,10.32
2022-11-27T15:42:50.581Z,10.73
2022-11-27T15:48:00.267Z,10.10
2022-11-27T15:53:02.634Z,10.80
2022-11-27T15:58:05.050Z,10.93
2022-11-27T16:03:08.776Z,10.63
2022-11-27T16:08:11.719Z,10.55
2022-11-27T16:13:14.161Z,10.50
2022-11-27T16:18:18.156Z,10.30
2022-11-27T16:23:21.576Z,10.98
2022-11-27T16:28:23.959Z,9.75
2022-11-27T16:33:28.056Z,10.98
2022-11-27T16:38:30.412Z,12.38
2022-11-27T16:43:35.063Z,10.10
2022-11-27T16:48:39.308Z,10.98
2022-11-27T16:53:42.128Z,11.77
2022-11-27T16:58:45.617Z,14.47
2022-11-27T17:08:51.637Z,12.23
2022-11-27T17:13:56.953Z,9.65
2022-11-27T17:19:00.361Z,11.43
2022-11-27T17:24:07.790Z,11.13
2022-11-27T17:29:13.358Z,9.57
2022-11-27T17:34:16.301Z,8.60
2022-11-27T17:39:20.323Z,9.20
2022-11-27T17:44:22.749Z,9.90
2022-11-27T17:49:25.218Z,9.57
2022-11-27T17:54:28.952Z,10.73
2022-11-27T17:59:31.395Z,9.25
2022-11-27T18:04:33.790Z,11.52
2022-11-27T18:09:37.547Z,9.93
2022-11-27T18:14:39.889Z,8.00
2022-11-27T18:19:42.530Z,9.18
2022-11-27T18:24:46.410Z,8.93
2022-11-27T18:29:50.026Z,8.32
2022-11-27T18:34:52.882Z,8.60
2022-11-27T18:39:56.800Z,8.38
2022-11-27T18:44:59.222Z,8.18
2022-11-27T18:50:03.250Z,18.20
2022-11-27T18:55:07.277Z,8.93
2022-11-27T19:00:10.184Z,8.38
2022-11-27T19:05:12.827Z,8.80
2022-11-27T19:10:17.178Z,8.90
2022-11-27T19:15:19.633Z,8.93
2022-11-27T19:20:21.988Z,10.13
2022-11-27T19:25:25.738Z,11.82
2022-11-27T19:30:32.757Z,11.15
2022-11-27T19:35:36.939Z,22.63
2022-11-27T19:40:41.462Z,11.77
2022-11-27T19:45:43.882Z,9.38
2022-11-27T19:50:46.360Z,9.88
2022-11-27T19:55:54.680Z,10.52
2022-11-27T20:01:05.025Z,8.65
2022-11-27T20:06:08.540Z,8.88
2022-11-27T20:16:17.731Z,8.20
2022-11-27T20:21:21.031Z,9.40
2022-11-27T20:26:24.271Z,8.63
2022-11-27T20:31:35.477Z,10.02
2022-11-27T20:36:39.477Z,9.68
2022-11-27T20:41:41.986Z,10.55
2022-11-27T20:46:45.788Z,10.45
2022-11-27T20:51:49.035Z,10.80
2022-11-27T20:56:51.583Z,10.85
2022-11-27T21:01:55.432Z,10.68
2022-11-27T21:06:58.395Z,10.82
2022-11-27T21:12:00.965Z,10.77
2022-11-27T21:17:05.381Z,9.68
2022-11-27T21:22:08.088Z,9.80
2022-11-27T21:27:10.945Z,10.50
2022-11-27T21:32:14.954Z,9.88
2022-11-27T21:37:17.399Z,9.35
2022-11-27T21:42:20.951Z,10.57
2022-11-27T21:52:26.996Z,12.75
2022-11-27T21:57:29.395Z,11.45
2022-11-27T22:02:31.879Z,11.48
2022-11-27T22:07:36.638Z,11.30
2022-11-27T22:12:39.030Z,12.75
2022-11-27T22:17:41.395Z,14.85
2022-11-27T22:22:45.148Z,24.98
2022-11-27T22:27:47.628Z,10.98
2022-11-27T22:32:50.023Z,11.35
2022-11-27T22:37:54.673Z,12.10
2022-11-27T22:42:57.228Z,11.75
2022-11-27T22:47:59.566Z,11.02
2022-11-27T22:53:03.328Z,10.85
2022-11-27T22:58:05.688Z,10.20
2022-11-27T23:03:08.118Z,10.95
2022-11-27T23:08:11.955Z,9.52
2022-11-27T23:13:14.454Z,9.85
2022-11-27T23:18:16.877Z,9.60
2022-11-27T23:23:20.638Z,9.20
2022-11-27T23:28:22.998Z,9.77
2022-11-27T23:33:25.433Z,9.32
2022-11-27T23:38:30.019Z,9.20
2022-11-27T23:43:32.435Z,9.80
2022-11-27T23:48:35.112Z,8.93
2022-11-27T23:53:38.872Z,8.67
2022-11-27T23:58:46.626Z,9.25
